sensor_id;sensor_type;location;lat;lon;timestamp;temperature;humidity
56771;DHT22;42641;59.794;17.616;2024-03-23T00:54:09;3.60;99.90
56771;DHT22;42641;59.794;17.616;2024-03-23T00:56:35;3.60;99.90
56771;DHT22;42641;59.794;17.616;2024-03-23T00:59:02;3.60;99.90
56771;DHT22;42641;59.794;17.616;2024-03-23T01:01:28;3.60;99.90
56771;DHT22;42641;59.794;17.616;2024-03-23T01:03:54;3.60;99.90
56771;DHT22;42641;59.794;17.616;2024-03-23T01:06:21;3.50;99.90
56771;DHT22;42641;59.794;17.616;2024-03-23T01:08:47;3.50;99.90
56771;DHT22;42641;59.794;17.616;2024-03-23T01:11:13;3.50;99.90
56771;DHT22;42641;59.794;17.616;2024-03-23T01:13:40;3.50;99.90
56771;DHT22;42641;59.794;17.616;2024-03-23T01:16:06;3.50;99.90
56771;DHT22;42641;59.794;17.616;2024-03-23T01:18:33;3.50;99.90
56771;DHT22;42641;59.794;17.616;2024-03-23T01:20:59;3.50;99.90
56771;DHT22;42641;59.794;17.616;2024-03-23T01:23:25;3.50;99.90
56771;DHT22;42641;59.794;17.616;2024-03-23T01:25:53;3.40;99.90
56771;DHT22;42641;59.794;17.616;2024-03-23T01:28:20;3.40;99.90
56771;DHT22;42641;59.794;17.616;2024-03-23T01:30:47;3.40;99.90
56771;DHT22;42641;59.794;17.616;2024-03-23T01:33:14;3.40;99.90
56771;DHT22;42641;59.794;17.616;2024-03-23T01:35:40;3.30;99.90
56771;DHT22;42641;59.794;17.616;2024-03-23T01:38:07;3.30;99.90
56771;DHT22;42641;59.794;17.616;2024-03-23T01:40:33;3.30;99.90
56771;DHT22;42641;59.794;17.616;2024-03-23T01:43:04;3.30;99.90
56771;DHT22;42641;59.794;17.616;2024-03-23T01:45:31;3.30;99.90
56771;DHT22;42641;59.794;17.616;2024-03-23T01:47:59;3.30;99.90
56771;DHT22;42641;59.794;17.616;2024-03-23T01:50:26;3.30;99.90
56771;DHT22;42641;59.794;17.616;2024-03-23T01:52:53;3.20;99.90
56771;DHT22;42641;59.794;17.616;2024-03-23T01:55:20;3.20;99.90
56771;DHT22;42641;59.794;17.616;2024-03-23T01:57:47;3.20;99.90
56771;DHT22;42641;59.794;17.616;2024-03-23T02:00:14;3.20;99.90
56771;DHT22;42641;59.794;17.616;2024-03-23T02:02:46;3.20;99.90
56771;DHT22;42641;59.794;17.616;2024-03-23T02:05:13;3.20;99.90
56771;DHT22;42641;59.794;17.616;2024-03-23T02:07:41;3.20;99.90
56771;DHT22;42641;59.794;17.616;2024-03-23T02:10:08;3.10;99.90
56771;DHT22;42641;59.794;17.616;2024-03-23T02:12:36;3.10;99.90
56771;DHT22;42641;59.794;17.616;2024-03-23T02:15:03;3.10;99.90
56771;DHT22;42641;59.794;17.616;2024-03-23T02:17:35;3.10;99.90
56771;DHT22;42641;59.794;17.616;2024-03-23T02:20:02;3.10;99.90
56771;DHT22;42641;59.794;17.616;2024-03-23T02:22:39;3.10;99.90
56771;DHT22;42641;59.794;17.616;2024-03-23T02:25:06;3.10;99.90
56771;DHT22;42641;59.794;17.616;2024-03-23T02:27:33;3.00;99.90
56771;DHT22;42641;59.794;17.616;2024-03-23T02:30:01;3.00;99.90
56771;DHT22;42641;59.794;17.616;2024-03-23T02:32:27;3.00;99.90
56771;DHT22;42641;59.794;17.616;2024-03-23T02:34:53;2.90;99.90
56771;DHT22;42641;59.794;17.616;2024-03-23T02:37:20;2.90;99.90
56771;DHT22;42641;59.794;17.616;2024-03-23T02:39:46;2.90;99.90
56771;DHT22;42641;59.794;17.616;2024-03-23T02:42:12;2.90;99.90
56771;DHT22;42641;59.794;17.616;2024-03-23T02:44:39;2.90;99.90
56771;DHT22;42641;59.794;17.616;2024-03-23T02:47:05;2.90;99.90
56771;DHT22;42641;59.794;17.616;2024-03-23T02:49:32;2.90;99.90
56771;DHT22;42641;59.794;17.616;2024-03-23T02:51:58;2.90;99.90
56771;DHT22;42641;59.794;17.616;2024-03-23T02:54:24;2.90;99.90
56771;DHT22;42641;59.794;17.616;2024-03-23T02:56:51;2.90;99.90
56771;DHT22;42641;59.794;17.616;2024-03-23T02:59:17;2.90;99.90
56771;DHT22;42641;59.794;17.616;2024-03-23T03:01:43;2.90;99.90
56771;DHT22;42641;59.794;17.616;2024-03-23T03:04:10;2.90;99.90
56771;DHT22;42641;59.794;17.616;2024-03-23T03:06:37;2.80;99.90
56771;DHT22;42641;59.794;17.616;2024-03-23T03:09:03;2.80;99.90
56771;DHT22;42641;59.794;17.616;2024-03-23T03:11:30;2.80;99.90
56771;DHT22;42641;59.794;17.616;2024-03-23T03:13:57;2.70;99.90
56771;DHT22;42641;59.794;17.616;2024-03-23T03:16:26;2.70;99.90
56771;DHT22;42641;59.794;17.616;2024-03-23T03:18:53;2.70;99.90
56771;DHT22;42641;59.794;17.616;2024-03-23T03:21:19;2.70;99.90
56771;DHT22;42641;59.794;17.616;2024-03-23T03:23:45;2.70;99.90
56771;DHT22;42641;59.794;17.616;2024-03-23T03:26:12;2.60;99.90
56771;DHT22;42641;59.794;17.616;2024-03-23T03:28:38;2.60;99.90
56771;DHT22;42641;59.794;17.616;2024-03-23T03:31:05;2.60;99.90
56771;DHT22;42641;59.794;17.616;2024-03-23T03:33:31;2.60;99.90
56771;DHT22;42641;59.794;17.616;2024-03-23T03:35:58;2.60;99.90
56771;DHT22;42641;59.794;17.616;2024-03-23T03:38:24;2.60;99.90
56771;DHT22;42641;59.794;17.616;2024-03-23T03:40:50;2.60;99.90
56771;DHT22;42641;59.794;17.616;2024-03-23T03:43:18;2.70;99.90
56771;DHT22;42641;59.794;17.616;2024-03-23T03:45:54;2.70;99.90
56771;DHT22;42641;59.794;17.616;2024-03-23T03:48:21;2.70;99.90
56771;DHT22;42641;59.794;17.616;2024-03-23T03:50:47;2.60;99.90
56771;DHT22;42641;59.794;17.616;2024-03-23T03:53:14;2.60;99.90
56771;DHT22;42641;59.794;17.616;2024-03-23T03:55:40;2.60;99.90
56771;DHT22;42641;59.794;17.616;2024-03-23T03:58:07;2.60;99.90
56771;DHT22;42641;59.794;17.616;2024-03-23T04:00:33;2.60;99.90
56771;DHT22;42641;59.794;17.616;2024-03-23T04:02:59;2.60;99.90
56771;DHT22;42641;59.794;17.616;2024-03-23T04:05:26;2.50;99.90
56771;DHT22;42641;59.794;17.616;2024-03-23T04:07:52;2.50;99.90
56771;DHT22;42641;59.794;17.616;2024-03-23T04:10:18;2.50;99.90
56771;DHT22;42641;59.794;17.616;2024-03-23T04:12:47;2.50;99.90
56771;DHT22;42641;59.794;17.616;2024-03-23T04:15:14;2.50;99.90
56771;DHT22;42641;59.794;17.616;2024-03-23T04:17:40;2.50;99.90
56771;DHT22;42641;59.794;17.616;2024-03-23T04:20:09;2.50;99.90
56771;DHT22;42641;59.794;17.616;2024-03-23T04:22:37;2.50;99.90
56771;DHT22;42641;59.794;17.616;2024-03-23T04:25:04;2.50;99.90
56771;DHT22;42641;59.794;17.616;2024-03-23T04:27:33;2.50;99.90
56771;DHT22;42641;59.794;17.616;2024-03-23T04:29:59;2.50;99.90
56771;DHT22;42641;59.794;17.616;2024-03-23T04:32:27;2.50;99.90
56771;DHT22;42641;59.794;17.616;2024-03-23T04:34:54;2.50;99.90
56771;DHT22;42641;59.794;17.616;2024-03-23T04:37:21;2.50;99.90
56771;DHT22;42641;59.794;17.616;2024-03-23T04:39:48;2.50;99.90
56771;DHT22;42641;59.794;17.616;2024-03-23T04:42:17;2.50;99.90
56771;DHT22;42641;59.794;17.616;2024-03-23T04:44:44;2.40;99.90
56771;DHT22;42641;59.794;17.616;2024-03-23T04:47:11;2.50;99.90
56771;DHT22;42641;59.794;17.616;2024-03-23T04:49:39;2.50;99.90
56771;DHT22;42641;59.794;17.616;2024-03-23T04:52:05;2.40;99.90
56771;DHT22;42641;59.794;17.616;2024-03-23T04:54:32;2.50;99.90
56771;DHT22;42641;59.794;17.616;2024-03-23T04:56:58;2.50;99.90
56771;DHT22;42641;59.794;17.616;2024-03-23T04:59:25;2.40;99.90
56771;DHT22;42641;59.794;17.616;2024-03-23T05:01:51;2.50;99.90
56771;DHT22;42641;59.794;17.616;2024-03-23T05:04:18;2.50;99.90
56771;DHT22;42641;59.794;17.616;2024-03-23T05:06:44;2.50;99.90
56771;DHT22;42641;59.794;17.616;2024-03-23T05:09:11;2.50;99.90
56771;DHT22;42641;59.794;17.616;2024-03-23T05:11:38;2.60;99.90
56771;DHT22;42641;59.794;17.616;2024-03-23T05:14:04;2.50;99.90
56771;DHT22;42641;59.794;17.616;2024-03-23T05:16:31;2.60;99.90
56771;DHT22;42641;59.794;17.616;2024-03-23T05:18:57;2.50;99.90
56771;DHT22;42641;59.794;17.616;2024-03-23T05:21:24;2.60;99.90
56771;DHT22;42641;59.794;17.616;2024-03-23T05:23:50;2.60;99.90
56771;DHT22;42641;59.794;17.616;2024-03-23T05:26:17;2.60;99.90
56771;DHT22;42641;59.794;17.616;2024-03-23T05:28:44;2.60;99.90
56771;DHT22;42641;59.794;17.616;2024-03-23T05:31:10;2.60;99.90
56771;DHT22;42641;59.794;17.616;2024-03-23T05:33:37;2.60;99.90
56771;DHT22;42641;59.794;17.616;2024-03-23T05:36:06;2.70;99.90
56771;DHT22;42641;59.794;17.616;2024-03-23T05:38:37;2.70;99.90
56771;DHT22;42641;59.794;17.616;2024-03-23T05:41:03;2.70;99.90
56771;DHT22;42641;59.794;17.616;2024-03-23T05:43:29;2.80;99.90
56771;DHT22;42641;59.794;17.616;2024-03-23T05:45:58;2.80;99.90
56771;DHT22;42641;59.794;17.616;2024-03-23T05:48:26;2.80;99.90
56771;DHT22;42641;59.794;17.616;2024-03-23T05:50:52;2.90;99.90
56771;DHT22;42641;59.794;17.616;2024-03-23T05:53:19;2.90;99.90
56771;DHT22;42641;59.794;17.616;2024-03-23T05:55:49;3.00;99.90
56771;DHT22;42641;59.794;17.616;2024-03-23T05:58:16;3.00;99.90
56771;DHT22;42641;59.794;17.616;2024-03-23T06:00:43;3.00;99.90
56771;DHT22;42641;59.794;17.616;2024-03-23T06:03:09;3.10;99.90
56771;DHT22;42641;59.794;17.616;2024-03-23T06:05:37;3.10;99.90
56771;DHT22;42641;59.794;17.616;2024-03-23T06:08:04;3.10;99.90
56771;DHT22;42641;59.794;17.616;2024-03-23T06:10:30;3.20;99.90
56771;DHT22;42641;59.794;17.616;2024-03-23T06:12:58;3.20;99.90
56771;DHT22;42641;59.794;17.616;2024-03-23T06:15:26;3.30;99.90
56771;DHT22;42641;59.794;17.616;2024-03-23T06:17:53;3.30;99.90
56771;DHT22;42641;59.794;17.616;2024-03-23T06:20:19;3.30;99.90
56771;DHT22;42641;59.794;17.616;2024-03-23T06:22:46;3.40;99.90
56771;DHT22;42641;59.794;17.616;2024-03-23T06:25:12;3.40;99.90
56771;DHT22;42641;59.794;17.616;2024-03-23T06:27:38;3.40;99.90
56771;DHT22;42641;59.794;17.616;2024-03-23T06:30:06;3.50;99.90
56771;DHT22;42641;59.794;17.616;2024-03-23T06:32:32;3.60;99.90
56771;DHT22;42641;59.794;17.616;2024-03-23T06:34:59;3.60;99.90
56771;DHT22;42641;59.794;17.616;2024-03-23T06:37:26;3.70;99.90
56771;DHT22;42641;59.794;17.616;2024-03-23T06:39:52;3.80;99.90
56771;DHT22;42641;59.794;17.616;2024-03-23T06:42:19;3.90;99.90
56771;DHT22;42641;59.794;17.616;2024-03-23T06:44:45;3.90;99.90
56771;DHT22;42641;59.794;17.616;2024-03-23T06:47:12;3.90;99.90
56771;DHT22;42641;59.794;17.616;2024-03-23T06:49:38;3.90;99.90
56771;DHT22;42641;59.794;17.616;2024-03-23T06:52:05;4.00;99.90
56771;DHT22;42641;59.794;17.616;2024-03-23T06:54:32;4.10;99.90
56771;DHT22;42641;59.794;17.616;2024-03-23T06:56:58;4.10;99.90
56771;DHT22;42641;59.794;17.616;2024-03-23T06:59:25;4.20;99.90
56771;DHT22;42641;59.794;17.616;2024-03-23T07:01:51;4.30;99.90
56771;DHT22;42641;59.794;17.616;2024-03-23T07:04:17;4.40;99.90
56771;DHT22;42641;59.794;17.616;2024-03-23T07:06:45;4.40;99.90
56771;DHT22;42641;59.794;17.616;2024-03-23T07:09:12;4.40;99.90
56771;DHT22;42641;59.794;17.616;2024-03-23T07:11:38;4.40;99.90
56771;DHT22;42641;59.794;17.616;2024-03-23T07:14:05;4.50;99.90
56771;DHT22;42641;59.794;17.616;2024-03-23T07:16:31;4.60;99.90
56771;DHT22;42641;59.794;17.616;2024-03-23T07:19:04;4.70;99.90
56771;DHT22;42641;59.794;17.616;2024-03-23T07:21:31;4.80;99.90
56771;DHT22;42641;59.794;17.616;2024-03-23T07:23:57;4.80;99.90
56771;DHT22;42641;59.794;17.616;2024-03-23T07:26:23;4.90;99.90
56771;DHT22;42641;59.794;17.616;2024-03-23T07:28:50;4.90;99.90
56771;DHT22;42641;59.794;17.616;2024-03-23T07:31:16;5.00;99.90
56771;DHT22;42641;59.794;17.616;2024-03-23T07:33:44;5.00;99.90
56771;DHT22;42641;59.794;17.616;2024-03-23T07:36:11;5.00;99.90
56771;DHT22;42641;59.794;17.616;2024-03-23T07:38:39;5.10;99.90
56771;DHT22;42641;59.794;17.616;2024-03-23T07:41:17;5.20;99.90
56771;DHT22;42641;59.794;17.616;2024-03-23T07:43:43;5.20;99.90
56771;DHT22;42641;59.794;17.616;2024-03-23T07:46:11;5.20;99.90
56771;DHT22;42641;59.794;17.616;2024-03-23T07:48:38;5.30;99.90
56771;DHT22;42641;59.794;17.616;2024-03-23T07:51:08;5.40;99.90
56771;DHT22;42641;59.794;17.616;2024-03-23T07:53:36;5.60;99.90
56771;DHT22;42641;59.794;17.616;2024-03-23T07:56:07;5.70;99.90
56771;DHT22;42641;59.794;17.616;2024-03-23T07:58:35;5.70;99.90
56771;DHT22;42641;59.794;17.616;2024-03-23T08:01:10;5.90;99.90
56771;DHT22;42641;59.794;17.616;2024-03-23T08:03:37;5.80;99.90
56771;DHT22;42641;59.794;17.616;2024-03-23T08:06:17;5.80;99.90
56771;DHT22;42641;59.794;17.616;2024-03-23T08:08:46;5.80;99.90
56771;DHT22;42641;59.794;17.616;2024-03-23T08:11:13;5.90;99.90
56771;DHT22;42641;59.794;17.616;2024-03-23T08:13:41;5.90;99.90
56771;DHT22;42641;59.794;17.616;2024-03-23T08:16:08;5.80;99.90
56771;DHT22;42641;59.794;17.616;2024-03-23T08:18:38;5.90;99.90
56771;DHT22;42641;59.794;17.616;2024-03-23T08:21:05;5.80;99.90
56771;DHT22;42641;59.794;17.616;2024-03-23T08:23:33;5.90;99.90
56771;DHT22;42641;59.794;17.616;2024-03-23T08:26:01;6.00;99.90
56771;DHT22;42641;59.794;17.616;2024-03-23T08:28:27;6.10;99.90
56771;DHT22;42641;59.794;17.616;2024-03-23T08:30:55;6.10;99.90
56771;DHT22;42641;59.794;17.616;2024-03-23T08:33:22;6.10;99.90
56771;DHT22;42641;59.794;17.616;2024-03-23T08:35:58;6.10;99.90
56771;DHT22;42641;59.794;17.616;2024-03-23T08:38:25;6.10;99.90
56771;DHT22;42641;59.794;17.616;2024-03-23T08:41:18;6.10;99.90
56771;DHT22;42641;59.794;17.616;2024-03-23T08:43:45;6.20;99.90
56771;DHT22;42641;59.794;17.616;2024-03-23T08:46:11;6.30;99.90
56771;DHT22;42641;59.794;17.616;2024-03-23T08:48:46;6.30;99.90
56771;DHT22;42641;59.794;17.616;2024-03-23T08:51:16;6.30;99.90
56771;DHT22;42641;59.794;17.616;2024-03-23T08:53:43;6.40;99.90
56771;DHT22;42641;59.794;17.616;2024-03-23T08:56:10;6.60;99.90
56771;DHT22;42641;59.794;17.616;2024-03-23T08:58:38;6.70;99.90
56771;DHT22;42641;59.794;17.616;2024-03-23T09:01:08;6.80;99.90
56771;DHT22;42641;59.794;17.616;2024-03-23T09:03:35;6.90;99.90
56771;DHT22;42641;59.794;17.616;2024-03-23T09:06:06;7.10;99.90
56771;DHT22;42641;59.794;17.616;2024-03-23T09:08:32;7.10;99.90
56771;DHT22;42641;59.794;17.616;2024-03-23T09:11:04;7.10;99.90
56771;DHT22;42641;59.794;17.616;2024-03-23T09:13:36;7.20;99.90
56771;DHT22;42641;59.794;17.616;2024-03-23T09:16:03;7.30;99.90
56771;DHT22;42641;59.794;17.616;2024-03-23T09:18:34;7.40;99.90
56771;DHT22;42641;59.794;17.616;2024-03-23T09:21:02;7.50;99.90
56771;DHT22;42641;59.794;17.616;2024-03-23T09:23:29;7.40;99.90
56771;DHT22;42641;59.794;17.616;2024-03-23T09:25:56;7.40;99.90
56771;DHT22;42641;59.794;17.616;2024-03-23T09:28:22;7.30;99.90
56771;DHT22;42641;59.794;17.616;2024-03-23T09:30:49;7.30;99.90
56771;DHT22;42641;59.794;17.616;2024-03-23T09:33:15;7.40;99.90
56771;DHT22;42641;59.794;17.616;2024-03-23T09:35:43;7.50;99.90
56771;DHT22;42641;59.794;17.616;2024-03-23T09:38:11;7.60;99.90
56771;DHT22;42641;59.794;17.616;2024-03-23T09:40:41;7.60;99.90
56771;DHT22;42641;59.794;17.616;2024-03-23T09:43:10;7.60;99.90
56771;DHT22;42641;59.794;17.616;2024-03-23T09:45:40;7.70;99.90
56771;DHT22;42641;59.794;17.616;2024-03-23T09:48:08;7.80;99.90
56771;DHT22;42641;59.794;17.616;2024-03-23T09:50:39;7.90;99.90
56771;DHT22;42641;59.794;17.616;2024-03-23T09:53:07;8.00;99.90
56771;DHT22;42641;59.794;17.616;2024-03-23T09:55:34;7.90;99.90
56771;DHT22;42641;59.794;17.616;2024-03-23T09:58:02;7.80;99.90
56771;DHT22;42641;59.794;17.616;2024-03-23T10:00:29;7.90;99.90
56771;DHT22;42641;59.794;17.616;2024-03-23T10:02:55;8.00;99.90
56771;DHT22;42641;59.794;17.616;2024-03-23T10:05:24;8.00;99.90
56771;DHT22;42641;59.794;17.616;2024-03-23T10:07:50;8.20;99.90
56771;DHT22;42641;59.794;17.616;2024-03-23T10:10:17;8.40;99.90
56771;DHT22;42641;59.794;17.616;2024-03-23T10:12:48;8.50;99.90
56771;DHT22;42641;59.794;17.616;2024-03-23T10:15:20;8.70;99.90
56771;DHT22;42641;59.794;17.616;2024-03-23T10:17:47;8.80;99.90
56771;DHT22;42641;59.794;17.616;2024-03-23T10:20:21;8.90;99.90
56771;DHT22;42641;59.794;17.616;2024-03-23T10:22:51;9.00;99.90
56771;DHT22;42641;59.794;17.616;2024-03-23T10:25:18;8.80;99.90
56771;DHT22;42641;59.794;17.616;2024-03-23T10:28:00;8.80;99.90
56771;DHT22;42641;59.794;17.616;2024-03-23T10:30:27;8.70;99.90
56771;DHT22;42641;59.794;17.616;2024-03-23T10:33:10;8.80;99.90
56771;DHT22;42641;59.794;17.616;2024-03-23T10:35:38;9.00;99.90
56771;DHT22;42641;59.794;17.616;2024-03-23T10:38:08;9.00;99.90
56771;DHT22;42641;59.794;17.616;2024-03-23T10:40:35;9.30;99.90
56771;DHT22;42641;59.794;17.616;2024-03-23T10:43:06;9.30;99.90
56771;DHT22;42641;59.794;17.616;2024-03-23T10:45:34;9.30;99.90
56771;DHT22;42641;59.794;17.616;2024-03-23T10:48:02;9.20;99.90
56771;DHT22;42641;59.794;17.616;2024-03-23T10:50:28;9.00;99.90
56771;DHT22;42641;59.794;17.616;2024-03-23T10:52:56;8.90;99.90
56771;DHT22;42641;59.794;17.616;2024-03-23T10:55:25;8.80;99.90
56771;DHT22;42641;59.794;17.616;2024-03-23T10:57:54;9.00;99.90
56771;DHT22;42641;59.794;17.616;2024-03-23T11:00:22;9.10;99.90
56771;DHT22;42641;59.794;17.616;2024-03-23T11:02:49;9.10;99.90
56771;DHT22;42641;59.794;17.616;2024-03-23T11:05:31;9.20;99.90
56771;DHT22;42641;59.794;17.616;2024-03-23T11:07:58;9.40;99.90
56771;DHT22;42641;59.794;17.616;2024-03-23T11:10:25;9.50;99.90
56771;DHT22;42641;59.794;17.616;2024-03-23T11:12:52;9.50;99.90
56771;DHT22;42641;59.794;17.616;2024-03-23T11:15:19;9.60;99.90
56771;DHT22;42641;59.794;17.616;2024-03-23T11:18:05;9.70;99.90
56771;DHT22;42641;59.794;17.616;2024-03-23T11:20:35;9.80;99.90
56771;DHT22;42641;59.794;17.616;2024-03-23T11:23:01;9.60;99.90
56771;DHT22;42641;59.794;17.616;2024-03-23T11:25:29;9.50;99.90
56771;DHT22;42641;59.794;17.616;2024-03-23T11:28:11;9.60;99.90
56771;DHT22;42641;59.794;17.616;2024-03-23T11:30:41;9.70;99.90
56771;DHT22;42641;59.794;17.616;2024-03-23T11:33:09;9.50;99.90
56771;DHT22;42641;59.794;17.616;2024-03-23T11:35:39;9.40;99.90
56771;DHT22;42641;59.794;17.616;2024-03-23T11:40:34;9.00;99.90
56771;DHT22;42641;59.794;17.616;2024-03-23T11:43:03;8.80;99.90
56771;DHT22;42641;59.794;17.616;2024-03-23T11:45:38;8.90;99.90
56771;DHT22;42641;59.794;17.616;2024-03-23T11:50:37;9.10;99.90
56771;DHT22;42641;59.794;17.616;2024-03-23T11:53:14;9.10;99.90
56771;DHT22;42641;59.794;17.616;2024-03-23T11:55:49;9.30;99.90
56771;DHT22;42641;59.794;17.616;2024-03-23T11:58:17;9.30;99.90
56771;DHT22;42641;59.794;17.616;2024-03-23T12:00:59;9.50;99.90
56771;DHT22;42641;59.794;17.616;2024-03-23T12:03:26;9.60;99.90
56771;DHT22;42641;59.794;17.616;2024-03-23T12:05:55;9.50;99.90
56771;DHT22;42641;59.794;17.616;2024-03-23T12:08:34;9.60;99.90
56771;DHT22;42641;59.794;17.616;2024-03-23T12:11:10;9.60;99.90
56771;DHT22;42641;59.794;17.616;2024-03-23T12:13:38;9.60;99.90
56771;DHT22;42641;59.794;17.616;2024-03-23T12:18:41;9.50;99.90
56771;DHT22;42641;59.794;17.616;2024-03-23T12:21:08;9.30;99.90
56771;DHT22;42641;59.794;17.616;2024-03-23T12:23:35;9.30;99.90
56771;DHT22;42641;59.794;17.616;2024-03-23T12:26:02;9.20;99.90
56771;DHT22;42641;59.794;17.616;2024-03-23T12:28:28;9.20;99.90
56771;DHT22;42641;59.794;17.616;2024-03-23T12:30:55;9.20;99.90
56771;DHT22;42641;59.794;17.616;2024-03-23T12:33:21;9.20;99.90
56771;DHT22;42641;59.794;17.616;2024-03-23T12:35:52;9.10;99.90
56771;DHT22;42641;59.794;17.616;2024-03-23T12:38:18;9.00;99.90
56771;DHT22;42641;59.794;17.616;2024-03-23T12:40:49;9.20;99.90
56771;DHT22;42641;59.794;17.616;2024-03-23T12:43:16;9.60;99.90
56771;DHT22;42641;59.794;17.616;2024-03-23T12:45:47;10.40;99.90
56771;DHT22;42641;59.794;17.616;2024-03-23T12:48:13;10.70;99.90
56771;DHT22;42641;59.794;17.616;2024-03-23T12:50:40;11.20;99.90
56771;DHT22;42641;59.794;17.616;2024-03-23T12:53:06;11.50;99.90
56771;DHT22;42641;59.794;17.616;2024-03-23T12:55:35;11.80;99.90
56771;DHT22;42641;59.794;17.616;2024-03-23T12:58:01;11.90;99.90
56771;DHT22;42641;59.794;17.616;2024-03-23T13:00:28;11.80;99.90
56771;DHT22;42641;59.794;17.616;2024-03-23T13:02:54;11.80;99.90
56771;DHT22;42641;59.794;17.616;2024-03-23T13:05:20;12.20;99.90
56771;DHT22;42641;59.794;17.616;2024-03-23T13:07:47;13.40;99.90
56771;DHT22;42641;59.794;17.616;2024-03-23T13:10:13;13.70;99.90
56771;DHT22;42641;59.794;17.616;2024-03-23T13:12:40;13.50;99.90
56771;DHT22;42641;59.794;17.616;2024-03-23T13:15:09;13.10;99.90
56771;DHT22;42641;59.794;17.616;2024-03-23T13:17:35;13.00;99.90
56771;DHT22;42641;59.794;17.616;2024-03-23T13:20:01;13.00;99.90
56771;DHT22;42641;59.794;17.616;2024-03-23T13:22:29;13.00;99.90
56771;DHT22;42641;59.794;17.616;2024-03-23T13:24:56;12.80;99.90
56771;DHT22;42641;59.794;17.616;2024-03-23T13:27:22;13.20;99.90
56771;DHT22;42641;59.794;17.616;2024-03-23T13:29:49;13.30;99.90
56771;DHT22;42641;59.794;17.616;2024-03-23T13:32:16;13.50;99.90
56771;DHT22;42641;59.794;17.616;2024-03-23T13:34:42;13.10;99.90
56771;DHT22;42641;59.794;17.616;2024-03-23T13:37:09;12.20;99.90
56771;DHT22;42641;59.794;17.616;2024-03-23T13:39:36;11.50;99.90
56771;DHT22;42641;59.794;17.616;2024-03-23T13:42:02;11.10;99.90
56771;DHT22;42641;59.794;17.616;2024-03-23T13:44:29;10.80;99.90
56771;DHT22;42641;59.794;17.616;2024-03-23T13:46:56;10.50;99.90
56771;DHT22;42641;59.794;17.616;2024-03-23T13:49:27;10.00;99.90
56771;DHT22;42641;59.794;17.616;2024-03-23T13:51:54;10.10;99.90
56771;DHT22;42641;59.794;17.616;2024-03-23T13:54:21;11.00;99.90
56771;DHT22;42641;59.794;17.616;2024-03-23T13:56:48;11.50;99.90
56771;DHT22;42641;59.794;17.616;2024-03-23T13:59:15;12.10;99.90
56771;DHT22;42641;59.794;17.616;2024-03-23T14:01:41;12.50;99.90
56771;DHT22;42641;59.794;17.616;2024-03-23T14:04:08;12.50;99.90
56771;DHT22;42641;59.794;17.616;2024-03-23T14:06:34;12.40;99.90
56771;DHT22;42641;59.794;17.616;2024-03-23T14:09:00;12.50;99.90
56771;DHT22;42641;59.794;17.616;2024-03-23T14:11:27;12.80;99.90
56771;DHT22;42641;59.794;17.616;2024-03-23T14:13:54;13.00;99.90
56771;DHT22;42641;59.794;17.616;2024-03-23T14:16:21;13.10;99.90
56771;DHT22;42641;59.794;17.616;2024-03-23T14:18:47;13.00;99.90
56771;DHT22;42641;59.794;17.616;2024-03-23T14:21:14;13.00;99.90
56771;DHT22;42641;59.794;17.616;2024-03-23T14:23:40;13.50;99.90
56771;DHT22;42641;59.794;17.616;2024-03-23T14:26:09;13.90;99.90
56771;DHT22;42641;59.794;17.616;2024-03-23T14:28:35;13.80;99.90
56771;DHT22;42641;59.794;17.616;2024-03-23T14:31:02;13.20;99.90
56771;DHT22;42641;59.794;17.616;2024-03-23T14:33:29;13.10;99.90
56771;DHT22;42641;59.794;17.616;2024-03-23T14:35:56;13.00;99.90
56771;DHT22;42641;59.794;17.616;2024-03-23T14:38:25;13.20;99.90
56771;DHT22;42641;59.794;17.616;2024-03-23T14:40:52;13.70;99.90
56771;DHT22;42641;59.794;17.616;2024-03-23T14:43:19;14.40;99.90
56771;DHT22;42641;59.794;17.616;2024-03-23T14:48:41;13.70;99.90
56771;DHT22;42641;59.794;17.616;2024-03-23T14:51:09;13.60;99.90
56771;DHT22;42641;59.794;17.616;2024-03-23T14:53:36;13.10;99.90
56771;DHT22;42641;59.794;17.616;2024-03-23T14:56:04;12.90;99.90
56771;DHT22;42641;59.794;17.616;2024-03-23T14:58:30;12.90;99.90
56771;DHT22;42641;59.794;17.616;2024-03-23T15:01:07;12.80;99.90
56771;DHT22;42641;59.794;17.616;2024-03-23T15:03:37;12.80;99.90
56771;DHT22;42641;59.794;17.616;2024-03-23T15:06:05;12.50;99.90
56771;DHT22;42641;59.794;17.616;2024-03-23T15:08:32;12.20;99.90
56771;DHT22;42641;59.794;17.616;2024-03-23T15:10:59;11.90;99.90
56771;DHT22;42641;59.794;17.616;2024-03-23T15:13:26;11.70;99.90
56771;DHT22;42641;59.794;17.616;2024-03-23T15:15:53;11.50;99.90
56771;DHT22;42641;59.794;17.616;2024-03-23T15:18:19;11.30;99.90
56771;DHT22;42641;59.794;17.616;2024-03-23T15:20:55;11.10;99.90
56771;DHT22;42641;59.794;17.616;2024-03-23T15:23:22;10.90;99.90
56771;DHT22;42641;59.794;17.616;2024-03-23T15:25:56;10.80;99.90
56771;DHT22;42641;59.794;17.616;2024-03-23T15:28:23;10.70;99.90
56771;DHT22;42641;59.794;17.616;2024-03-23T15:30:49;10.60;99.90
56771;DHT22;42641;59.794;17.616;2024-03-23T15:33:16;10.40;99.90
56771;DHT22;42641;59.794;17.616;2024-03-23T15:35:42;10.40;99.90
56771;DHT22;42641;59.794;17.616;2024-03-23T15:38:09;10.30;99.90
56771;DHT22;42641;59.794;17.616;2024-03-23T15:40:36;10.30;99.90
56771;DHT22;42641;59.794;17.616;2024-03-23T15:43:02;10.20;99.90
56771;DHT22;42641;59.794;17.616;2024-03-23T15:45:29;10.10;99.90
56771;DHT22;42641;59.794;17.616;2024-03-23T15:47:55;10.10;99.90
56771;DHT22;42641;59.794;17.616;2024-03-23T15:50:21;10.10;99.90
56771;DHT22;42641;59.794;17.616;2024-03-23T15:52:47;9.80;99.90
56771;DHT22;42641;59.794;17.616;2024-03-23T15:55:14;9.80;99.90
56771;DHT22;42641;59.794;17.616;2024-03-23T15:57:41;9.70;99.90
56771;DHT22;42641;59.794;17.616;2024-03-23T16:00:08;9.60;99.90
56771;DHT22;42641;59.794;17.616;2024-03-23T16:02:39;9.60;99.90
56771;DHT22;42641;59.794;17.616;2024-03-23T16:05:06;9.70;99.90
56771;DHT22;42641;59.794;17.616;2024-03-23T16:07:34;9.70;99.90
56771;DHT22;42641;59.794;17.616;2024-03-23T16:10:01;9.60;99.90
56771;DHT22;42641;59.794;17.616;2024-03-23T16:12:31;9.50;99.90
56771;DHT22;42641;59.794;17.616;2024-03-23T16:14:58;9.50;99.90
56771;DHT22;42641;59.794;17.616;2024-03-23T16:17:24;9.40;99.90
56771;DHT22;42641;59.794;17.616;2024-03-23T16:19:50;9.40;99.90
56771;DHT22;42641;59.794;17.616;2024-03-23T16:22:17;9.40;99.90
56771;DHT22;42641;59.794;17.616;2024-03-23T16:24:44;9.40;99.90
56771;DHT22;42641;59.794;17.616;2024-03-23T16:27:10;9.40;99.90
56771;DHT22;42641;59.794;17.616;2024-03-23T16:29:37;9.40;99.90
56771;DHT22;42641;59.794;17.616;2024-03-23T16:32:03;9.30;99.90
56771;DHT22;42641;59.794;17.616;2024-03-23T16:34:30;9.20;99.90